Forbes, North Dakota
Current Conditions -  °F | °C
As of 11:53 AM on Thursday 29 Jan 2015 (Local Time) from KABR Reporting Station
Overcast Overcast  
Wind Chill: 13°   Ceiling: 1900
Heat Index: 27°   Visibility: 10mi
Dew Point: 18°   Wind: 22mph
Humidity: 69%   Direction: 350°N
Pressure: 30.49"   Gusts: NA
Location:  45.94°N, 98.78°W
Report Text: KABR 291753Z AUTO 35019KT 10SM OVC019 M03/M08 A3049 RMK AO2 SLP341 T10281078 10000 21033 51026
Loading
Personal Weather Stations






























Interactive Weather Map New forecast layout! Learn more

10-Day Weather Forecast

Advertisements
Track Severe Weather on mobile